createdAt,value
2023-01-13T05:09:01.792Z,0.1
2023-01-13T05:24:01.142Z,0.1
2023-01-13T09:09:01.557Z,0.3
2023-01-13T09:24:01.469Z,0.3
2023-01-13T10:10:01.582Z,0.2
2023-01-13T10:15:01.729Z,0.2
2023-01-13T10:30:16.512Z,0.2
2023-01-13T12:35:01.086Z,0.1
2023-01-13T12:40:01.893Z,0.2
2023-01-13T12:45:18.488Z,0.2
2023-01-13T13:00:11.680Z,0.2
2023-01-13T13:15:17.876Z,0.2
2023-01-13T13:30:16.457Z,0.2
2023-01-13T13:40:01.079Z,0.1
2023-01-13T13:45:12.843Z,0.1
2023-01-13T14:00:06.490Z,0.3
2023-01-13T14:05:01.102Z,0.2
2023-01-13T14:15:01.442Z,0.2
2023-01-13T14:20:01.125Z,0.5
2023-01-13T14:25:01.009Z,0.4
2023-01-13T14:30:01.895Z,0.4
2023-01-13T14:45:02.159Z,0.3
2023-01-13T14:50:01.029Z,0.2
2023-01-13T15:00:16.373Z,0.2
2023-01-13T15:25:01.419Z,0.2
2023-01-13T15:30:02.179Z,0.2
2023-01-13T15:40:00.994Z,0.4
2023-01-13T15:45:01.647Z,0.8
2023-01-13T15:50:00.989Z,1.1
2023-01-13T15:55:00.990Z,2.1
2023-01-13T16:00:04.246Z,2.6
2023-01-13T16:05:01.046Z,3.2
2023-01-13T16:10:01.070Z,3.0
2023-01-13T16:15:01.499Z,3.2
2023-01-13T16:20:01.003Z,2.6
2023-01-13T16:25:01.090Z,2.8
2023-01-13T16:30:01.685Z,3.0
2023-01-13T16:35:01.018Z,3.6
2023-01-13T16:40:01.653Z,4.0
2023-01-13T16:45:01.627Z,5.0
2023-01-13T16:50:01.197Z,6.2
2023-01-13T16:55:01.062Z,6.8
2023-01-13T17:00:02.366Z,7.4
2023-01-13T17:05:01.107Z,7.7
2023-01-13T17:10:01.097Z,7.3
2023-01-13T17:15:01.495Z,7.1
2023-01-13T17:20:01.501Z,6.3
2023-01-13T17:25:01.162Z,5.7
2023-01-13T17:30:02.805Z,4.8
2023-01-13T17:35:01.059Z,4.2
2023-01-13T17:40:01.150Z,3.0
2023-01-13T17:45:01.464Z,2.6
2023-01-13T17:50:01.084Z,2.1
2023-01-13T17:55:01.190Z,1.9
2023-01-13T18:00:02.158Z,1.8
2023-01-13T18:05:01.110Z,1.7
2023-01-13T18:10:01.097Z,1.3
2023-01-13T18:15:01.728Z,1.5
2023-01-13T18:20:01.069Z,1.4
2023-01-13T18:25:02.270Z,1.6
2023-01-13T18:30:03.652Z,1.5
2023-01-13T18:40:01.079Z,1.8
2023-01-13T18:45:01.836Z,1.7
2023-01-13T18:50:01.056Z,1.4
2023-01-13T19:00:02.317Z,1.8
2023-01-13T19:05:01.078Z,1.6
2023-01-13T19:15:01.739Z,1.6
2023-01-13T19:20:01.100Z,1.8
2023-01-13T19:30:05.200Z,2.1
2023-01-13T19:35:01.149Z,2.8
2023-01-13T19:45:01.733Z,2.5
2023-01-13T19:55:01.801Z,1.9
2023-01-13T20:00:01.891Z,1.0
2023-01-13T20:05:01.063Z,0.8
2023-01-13T20:15:01.604Z,0.8
2023-01-13T20:25:02.512Z,1.4
2023-01-13T20:30:01.744Z,2.0
2023-01-13T20:40:01.139Z,2.2
2023-01-13T20:45:01.969Z,2.0
2023-01-13T20:50:01.069Z,1.9
2023-01-13T20:55:01.049Z,1.6
2023-01-13T21:00:03.381Z,1.6
2023-01-13T21:05:01.101Z,1.3
2023-01-13T21:10:01.070Z,1.5
2023-01-13T21:15:01.450Z,0.9
2023-01-13T21:20:03.567Z,1.0
2023-01-13T21:25:01.066Z,1.6
2023-01-13T21:30:01.681Z,1.6
2023-01-13T21:35:01.775Z,1.7
2023-01-13T21:40:01.222Z,2.1
2023-01-13T21:45:02.351Z,2.2
2023-01-13T21:50:01.085Z,1.8
2023-01-13T22:00:01.971Z,1.6
2023-01-13T22:05:01.057Z,1.4
2023-01-13T22:15:01.583Z,1.4
2023-01-13T22:25:01.178Z,1.7
2023-01-13T22:30:01.675Z,1.9
2023-01-13T22:35:01.059Z,1.6
2023-01-13T22:40:01.162Z,1.4
2023-01-13T22:45:01.519Z,1.4
2023-01-13T22:50:01.071Z,1.2
2023-01-13T22:55:01.068Z,0.9
2023-01-13T23:00:03.419Z,1.0
2023-01-13T23:15:01.925Z,1.1
2023-01-13T23:20:01.070Z,1.3
2023-01-13T23:25:01.136Z,1.4
2023-01-13T23:30:03.285Z,1.6
2023-01-13T23:35:01.149Z,1.9
2023-01-13T23:40:01.074Z,1.8
2023-01-13T23:45:01.527Z,2.1
2023-01-13T23:50:01.116Z,2.2
2023-01-13T23:55:01.092Z,1.9
